sensor_id;sensor_type;location;lat;lon;timestamp;P1;P2;P0
69205;PMS7003;56319;48.920;2.332;2023-12-07T00:02:24;12.75;12.25;10.00
69205;PMS7003;56319;48.920;2.332;2023-12-07T00:04:49;14.25;14.25;10.25
69205;PMS7003;56319;48.920;2.332;2023-12-07T00:07:15;14.50;13.00;10.50
69205;PMS7003;56319;48.920;2.332;2023-12-07T00:09:41;16.25;13.00;10.25
69205;PMS7003;56319;48.920;2.332;2023-12-07T00:12:07;13.25;12.25;10.50
69205;PMS7003;56319;48.920;2.332;2023-12-07T00:14:33;11.00;10.50;8.50
69205;PMS7003;56319;48.920;2.332;2023-12-07T00:16:59;8.25;7.50;5.50
69205;PMS7003;56319;48.920;2.332;2023-12-07T00:19:25;13.25;12.50;10.50
69205;PMS7003;56319;48.920;2.332;2023-12-07T00:21:50;14.00;13.00;10.75
69205;PMS7003;56319;48.920;2.332;2023-12-07T00:24:16;11.75;11.25;8.50
69205;PMS7003;56319;48.920;2.332;2023-12-07T00:26:42;13.00;13.00;10.50
69205;PMS7003;56319;48.920;2.332;2023-12-07T00:29:07;15.25;12.25;11.00
69205;PMS7003;56319;48.920;2.332;2023-12-07T00:31:33;14.25;13.75;10.50
69205;PMS7003;56319;48.920;2.332;2023-12-07T00:33:59;13.25;13.00;11.00
69205;PMS7003;56319;48.920;2.332;2023-12-07T00:36:24;15.50;13.00;10.75
69205;PMS7003;56319;48.920;2.332;2023-12-07T00:38:51;13.25;13.25;11.00
69205;PMS7003;56319;48.920;2.332;2023-12-07T00:41:17;14.25;13.75;11.00
69205;PMS7003;56319;48.920;2.332;2023-12-07T00:43:43;15.75;13.50;11.50
69205;PMS7003;56319;48.920;2.332;2023-12-07T00:46:09;12.50;12.50;10.00
69205;PMS7003;56319;48.920;2.332;2023-12-07T00:48:36;16.25;15.00;11.25
69205;PMS7003;56319;48.920;2.332;2023-12-07T00:51:01;17.00;14.50;11.25
69205;PMS7003;56319;48.920;2.332;2023-12-07T00:53:28;16.25;13.50;10.75
69205;PMS7003;56319;48.920;2.332;2023-12-07T00:55:54;13.50;13.50;10.00
69205;PMS7003;56319;48.920;2.332;2023-12-07T00:58:19;14.00;13.00;9.25
69205;PMS7003;56319;48.920;2.332;2023-12-07T01:00:45;12.25;11.25;10.00
69205;PMS7003;56319;48.920;2.332;2023-12-07T01:03:10;16.75;14.00;10.00
69205;PMS7003;56319;48.920;2.332;2023-12-07T01:05:36;12.75;11.75;9.00
69205;PMS7003;56319;48.920;2.332;2023-12-07T01:08:02;11.75;11.00;10.00
69205;PMS7003;56319;48.920;2.332;2023-12-07T01:10:28;13.00;11.00;9.00
69205;PMS7003;56319;48.920;2.332;2023-12-07T01:12:54;15.00;14.00;11.00
69205;PMS7003;56319;48.920;2.332;2023-12-07T01:15:20;12.25;12.25;10.00
69205;PMS7003;56319;48.920;2.332;2023-12-07T01:17:46;11.00;10.75;9.00
69205;PMS7003;56319;48.920;2.332;2023-12-07T01:20:11;14.25;12.50;10.25
69205;PMS7003;56319;48.920;2.332;2023-12-07T01:22:39;11.00;11.00;9.25
69205;PMS7003;56319;48.920;2.332;2023-12-07T01:25:06;10.75;10.50;7.75
69205;PMS7003;56319;48.920;2.332;2023-12-07T01:27:32;15.00;13.00;10.00
69205;PMS7003;56319;48.920;2.332;2023-12-07T01:29:58;14.25;13.75;10.25
69205;PMS7003;56319;48.920;2.332;2023-12-07T01:32:24;13.50;12.50;9.00
69205;PMS7003;56319;48.920;2.332;2023-12-07T01:34:49;10.50;10.50;9.00
69205;PMS7003;56319;48.920;2.332;2023-12-07T01:37:15;14.75;12.75;11.25
69205;PMS7003;56319;48.920;2.332;2023-12-07T01:39:41;14.00;11.25;9.50
69205;PMS7003;56319;48.920;2.332;2023-12-07T01:42:08;14.00;12.75;11.00
69205;PMS7003;56319;48.920;2.332;2023-12-07T01:44:34;12.50;11.00;10.00
69205;PMS7003;56319;48.920;2.332;2023-12-07T01:47:00;12.50;10.75;9.00
69205;PMS7003;56319;48.920;2.332;2023-12-07T01:49:27;13.00;13.00;10.25
69205;PMS7003;56319;48.920;2.332;2023-12-07T01:51:54;15.25;12.25;10.00
69205;PMS7003;56319;48.920;2.332;2023-12-07T01:54:20;13.25;12.75;11.00
69205;PMS7003;56319;48.920;2.332;2023-12-07T01:56:46;11.25;11.25;9.25
69205;PMS7003;56319;48.920;2.332;2023-12-07T01:59:12;13.00;12.50;10.00
69205;PMS7003;56319;48.920;2.332;2023-12-07T02:01:38;12.25;12.25;10.00
69205;PMS7003;56319;48.920;2.332;2023-12-07T02:04:04;11.75;11.50;9.75
69205;PMS7003;56319;48.920;2.332;2023-12-07T02:06:30;16.00;12.50;10.50
69205;PMS7003;56319;48.920;2.332;2023-12-07T02:08:56;14.00;13.00;9.00
69205;PMS7003;56319;48.920;2.332;2023-12-07T02:11:22;15.50;12.00;10.00
69205;PMS7003;56319;48.920;2.332;2023-12-07T02:13:48;13.50;12.00;10.00
69205;PMS7003;56319;48.920;2.332;2023-12-07T02:16:15;8.75;6.75;2.50
69205;PMS7003;56319;48.920;2.332;2023-12-07T02:18:51;15.75;10.75;10.00
69205;PMS7003;56319;48.920;2.332;2023-12-07T02:21:30;12.50;12.00;10.00
69205;PMS7003;56319;48.920;2.332;2023-12-07T02:24:03;10.50;10.50;9.00
69205;PMS7003;56319;48.920;2.332;2023-12-07T02:26:34;13.50;13.50;11.00
69205;PMS7003;56319;48.920;2.332;2023-12-07T02:29:02;12.75;11.00;9.75
69205;PMS7003;56319;48.920;2.332;2023-12-07T02:31:28;12.25;10.00;8.00
69205;PMS7003;56319;48.920;2.332;2023-12-07T02:33:54;12.75;11.75;10.25
69205;PMS7003;56319;48.920;2.332;2023-12-07T02:36:22;11.75;11.75;9.00
69205;PMS7003;56319;48.920;2.332;2023-12-07T02:38:50;11.25;11.25;9.00
69205;PMS7003;56319;48.920;2.332;2023-12-07T02:41:18;7.25;7.25;4.25
69205;PMS7003;56319;48.920;2.332;2023-12-07T02:43:46;12.75;12.75;11.00
69205;PMS7003;56319;48.920;2.332;2023-12-07T02:46:12;12.00;11.50;9.50
69205;PMS7003;56319;48.920;2.332;2023-12-07T02:48:38;9.75;8.75;7.00
69205;PMS7003;56319;48.920;2.332;2023-12-07T02:51:04;12.00;11.75;9.75
69205;PMS7003;56319;48.920;2.332;2023-12-07T02:53:29;11.25;11.25;9.50
69205;PMS7003;56319;48.920;2.332;2023-12-07T02:55:55;11.75;11.25;9.00
69205;PMS7003;56319;48.920;2.332;2023-12-07T02:58:21;11.50;10.50;8.50
69205;PMS7003;56319;48.920;2.332;2023-12-07T03:00:46;12.00;12.00;10.00
69205;PMS7003;56319;48.920;2.332;2023-12-07T03:03:12;12.50;12.50;10.00
69205;PMS7003;56319;48.920;2.332;2023-12-07T03:05:38;14.00;11.00;9.25
69205;PMS7003;56319;48.920;2.332;2023-12-07T03:08:03;9.50;9.50;8.25
69205;PMS7003;56319;48.920;2.332;2023-12-07T03:10:29;12.50;10.75;8.50
69205;PMS7003;56319;48.920;2.332;2023-12-07T03:12:55;17.00;13.75;10.00
69205;PMS7003;56319;48.920;2.332;2023-12-07T03:15:21;10.50;10.25;9.50
69205;PMS7003;56319;48.920;2.332;2023-12-07T03:17:46;11.50;11.50;8.75
69205;PMS7003;56319;48.920;2.332;2023-12-07T03:20:12;11.00;11.00;9.00
69205;PMS7003;56319;48.920;2.332;2023-12-07T03:22:38;11.75;11.75;9.75
69205;PMS7003;56319;48.920;2.332;2023-12-07T03:25:04;12.00;12.00;10.00
69205;PMS7003;56319;48.920;2.332;2023-12-07T03:27:31;11.50;11.50;9.00
69205;PMS7003;56319;48.920;2.332;2023-12-07T03:29:56;12.00;12.00;9.25
69205;PMS7003;56319;48.920;2.332;2023-12-07T03:32:22;13.50;12.25;10.00
69205;PMS7003;56319;48.920;2.332;2023-12-07T03:34:48;12.50;11.00;10.00
69205;PMS7003;56319;48.920;2.332;2023-12-07T03:37:13;11.00;10.50;8.75
69205;PMS7003;56319;48.920;2.332;2023-12-07T03:39:39;11.50;10.50;8.50
69205;PMS7003;56319;48.920;2.332;2023-12-07T03:42:05;11.75;10.75;8.50
69205;PMS7003;56319;48.920;2.332;2023-12-07T03:44:31;10.00;9.00;7.00
69205;PMS7003;56319;48.920;2.332;2023-12-07T03:46:56;13.00;11.00;10.00
69205;PMS7003;56319;48.920;2.332;2023-12-07T03:49:22;11.50;11.00;9.25
69205;PMS7003;56319;48.920;2.332;2023-12-07T03:51:48;14.00;10.00;8.75
69205;PMS7003;56319;48.920;2.332;2023-12-07T03:54:13;11.00;10.00;8.50
69205;PMS7003;56319;48.920;2.332;2023-12-07T03:56:39;12.00;10.00;9.00
69205;PMS7003;56319;48.920;2.332;2023-12-07T03:59:06;11.25;11.00;8.50
69205;PMS7003;56319;48.920;2.332;2023-12-07T04:01:32;12.25;12.25;9.75
69205;PMS7003;56319;48.920;2.332;2023-12-07T04:03:58;12.75;9.50;8.75
69205;PMS7003;56319;48.920;2.332;2023-12-07T04:06:26;14.00;13.50;10.00
69205;PMS7003;56319;48.920;2.332;2023-12-07T04:08:52;14.50;11.50;9.75
69205;PMS7003;56319;48.920;2.332;2023-12-07T04:11:18;11.75;10.75;9.00
69205;PMS7003;56319;48.920;2.332;2023-12-07T04:13:44;10.75;10.75;9.50
69205;PMS7003;56319;48.920;2.332;2023-12-07T04:16:10;10.25;10.25;8.00
69205;PMS7003;56319;48.920;2.332;2023-12-07T04:18:37;11.00;9.25;9.00
69205;PMS7003;56319;48.920;2.332;2023-12-07T04:21:03;11.75;10.00;8.00
69205;PMS7003;56319;48.920;2.332;2023-12-07T04:23:30;11.00;11.00;8.25
69205;PMS7003;56319;48.920;2.332;2023-12-07T04:25:56;12.25;12.25;10.00
69205;PMS7003;56319;48.920;2.332;2023-12-07T04:28:22;10.00;10.00;8.00
69205;PMS7003;56319;48.920;2.332;2023-12-07T04:30:48;13.00;12.00;9.25
69205;PMS7003;56319;48.920;2.332;2023-12-07T04:33:14;11.00;11.00;10.00
69205;PMS7003;56319;48.920;2.332;2023-12-07T04:35:40;12.50;9.50;7.50
69205;PMS7003;56319;48.920;2.332;2023-12-07T04:38:05;10.75;10.75;9.00
69205;PMS7003;56319;48.920;2.332;2023-12-07T04:40:31;10.00;10.00;8.50
69205;PMS7003;56319;48.920;2.332;2023-12-07T04:42:57;10.25;10.00;8.00
69205;PMS7003;56319;48.920;2.332;2023-12-07T04:45:23;11.00;8.00;7.75
69205;PMS7003;56319;48.920;2.332;2023-12-07T04:47:49;11.00;10.50;8.00
69205;PMS7003;56319;48.920;2.332;2023-12-07T04:50:15;10.50;9.25;8.25
69205;PMS7003;56319;48.920;2.332;2023-12-07T04:52:40;9.00;9.00;7.25
69205;PMS7003;56319;48.920;2.332;2023-12-07T04:55:06;9.25;9.25;7.25
69205;PMS7003;56319;48.920;2.332;2023-12-07T04:57:33;10.50;9.00;8.00
69205;PMS7003;56319;48.920;2.332;2023-12-07T04:59:59;5.25;5.25;3.00
69205;PMS7003;56319;48.920;2.332;2023-12-07T05:02:26;11.75;11.50;9.25
69205;PMS7003;56319;48.920;2.332;2023-12-07T05:04:53;12.00;10.25;8.75
69205;PMS7003;56319;48.920;2.332;2023-12-07T05:07:19;11.25;10.75;8.75
69205;PMS7003;56319;48.920;2.332;2023-12-07T05:09:45;13.25;11.75;9.75
69205;PMS7003;56319;48.920;2.332;2023-12-07T05:12:11;10.00;10.00;8.00
69205;PMS7003;56319;48.920;2.332;2023-12-07T05:14:37;10.50;10.00;9.00
69205;PMS7003;56319;48.920;2.332;2023-12-07T05:17:03;9.25;9.25;8.00
69205;PMS7003;56319;48.920;2.332;2023-12-07T05:19:30;9.50;8.75;7.00
69205;PMS7003;56319;48.920;2.332;2023-12-07T05:21:56;8.00;8.00;7.00
69205;PMS7003;56319;48.920;2.332;2023-12-07T05:24:22;7.00;6.00;5.00
69205;PMS7003;56319;48.920;2.332;2023-12-07T05:26:47;8.75;8.75;8.25
69205;PMS7003;56319;48.920;2.332;2023-12-07T05:29:14;9.75;8.75;6.75
69205;PMS7003;56319;48.920;2.332;2023-12-07T05:31:40;11.00;10.25;8.50
69205;PMS7003;56319;48.920;2.332;2023-12-07T05:34:07;11.00;10.00;8.75
69205;PMS7003;56319;48.920;2.332;2023-12-07T05:36:33;9.00;9.00;7.00
69205;PMS7003;56319;48.920;2.332;2023-12-07T05:38:58;10.25;9.50;8.25
69205;PMS7003;56319;48.920;2.332;2023-12-07T05:41:24;9.50;9.25;7.25
69205;PMS7003;56319;48.920;2.332;2023-12-07T05:43:51;8.00;8.00;6.25
69205;PMS7003;56319;48.920;2.332;2023-12-07T05:46:18;14.00;9.75;8.00
69205;PMS7003;56319;48.920;2.332;2023-12-07T05:48:45;9.75;9.75;8.00
69205;PMS7003;56319;48.920;2.332;2023-12-07T05:51:12;10.00;9.00;7.00
69205;PMS7003;56319;48.920;2.332;2023-12-07T05:53:39;7.25;7.25;7.00
69205;PMS7003;56319;48.920;2.332;2023-12-07T05:56:06;11.25;9.25;8.00
69205;PMS7003;56319;48.920;2.332;2023-12-07T05:58:32;7.50;6.25;5.25
69205;PMS7003;56319;48.920;2.332;2023-12-07T06:00:58;9.00;9.00;8.00
69205;PMS7003;56319;48.920;2.332;2023-12-07T06:03:25;9.00;9.00;7.75
69205;PMS7003;56319;48.920;2.332;2023-12-07T06:05:51;12.50;9.25;8.00
69205;PMS7003;56319;48.920;2.332;2023-12-07T06:08:17;8.50;7.75;6.00
69205;PMS7003;56319;48.920;2.332;2023-12-07T06:10:43;8.25;7.50;6.00
69205;PMS7003;56319;48.920;2.332;2023-12-07T06:13:09;12.00;10.25;8.75
69205;PMS7003;56319;48.920;2.332;2023-12-07T06:15:35;10.50;10.50;8.25
69205;PMS7003;56319;48.920;2.332;2023-12-07T06:18:02;10.50;10.00;8.00
69205;PMS7003;56319;48.920;2.332;2023-12-07T06:20:28;9.00;9.00;7.00
69205;PMS7003;56319;48.920;2.332;2023-12-07T06:22:54;7.00;7.00;5.25
69205;PMS7003;56319;48.920;2.332;2023-12-07T06:25:20;11.25;9.25;7.50
69205;PMS7003;56319;48.920;2.332;2023-12-07T06:27:46;10.00;9.25;8.25
69205;PMS7003;56319;48.920;2.332;2023-12-07T06:30:12;9.50;8.50;7.25
69205;PMS7003;56319;48.920;2.332;2023-12-07T06:32:38;8.75;8.75;7.00
69205;PMS7003;56319;48.920;2.332;2023-12-07T06:35:04;9.25;7.75;6.50
69205;PMS7003;56319;48.920;2.332;2023-12-07T06:37:41;5.50;5.50;4.50
69205;PMS7003;56319;48.920;2.332;2023-12-07T06:40:08;7.25;7.25;6.50
69205;PMS7003;56319;48.920;2.332;2023-12-07T06:42:35;8.25;7.50;7.00
69205;PMS7003;56319;48.920;2.332;2023-12-07T06:45:01;7.00;7.00;6.00
69205;PMS7003;56319;48.920;2.332;2023-12-07T06:47:27;8.50;7.00;6.00
69205;PMS7003;56319;48.920;2.332;2023-12-07T06:49:53;8.75;8.75;7.75
69205;PMS7003;56319;48.920;2.332;2023-12-07T06:52:20;9.25;8.50;7.00
69205;PMS7003;56319;48.920;2.332;2023-12-07T06:54:46;8.75;7.25;7.00
69205;PMS7003;56319;48.920;2.332;2023-12-07T06:57:12;9.75;9.75;8.00
69205;PMS7003;56319;48.920;2.332;2023-12-07T06:59:38;8.75;8.00;7.00
69205;PMS7003;56319;48.920;2.332;2023-12-07T07:02:03;9.00;8.00;7.00
69205;PMS7003;56319;48.920;2.332;2023-12-07T07:04:29;9.00;8.00;7.00
69205;PMS7003;56319;48.920;2.332;2023-12-07T07:06:55;9.75;8.50;6.00
69205;PMS7003;56319;48.920;2.332;2023-12-07T07:09:21;9.25;7.00;6.75
69205;PMS7003;56319;48.920;2.332;2023-12-07T07:11:48;7.50;7.50;6.75
69205;PMS7003;56319;48.920;2.332;2023-12-07T07:14:14;8.00;8.00;7.00
69205;PMS7003;56319;48.920;2.332;2023-12-07T07:16:41;8.25;7.00;5.75
69205;PMS7003;56319;48.920;2.332;2023-12-07T07:19:07;9.25;9.00;8.00
69205;PMS7003;56319;48.920;2.332;2023-12-07T07:21:32;8.25;8.25;6.50
69205;PMS7003;56319;48.920;2.332;2023-12-07T07:23:58;8.00;8.00;7.00
69205;PMS7003;56319;48.920;2.332;2023-12-07T07:26:24;10.00;8.00;6.00
69205;PMS7003;56319;48.920;2.332;2023-12-07T07:28:50;7.50;7.50;6.50
69205;PMS7003;56319;48.920;2.332;2023-12-07T07:31:17;9.75;8.00;7.00
69205;PMS7003;56319;48.920;2.332;2023-12-07T07:33:45;9.25;8.50;8.00
69205;PMS7003;56319;48.920;2.332;2023-12-07T07:36:13;7.25;7.25;6.75
69205;PMS7003;56319;48.920;2.332;2023-12-07T07:38:40;7.50;7.50;6.00
69205;PMS7003;56319;48.920;2.332;2023-12-07T07:41:06;7.00;7.00;6.00
69205;PMS7003;56319;48.920;2.332;2023-12-07T07:43:32;8.50;7.00;6.00
69205;PMS7003;56319;48.920;2.332;2023-12-07T07:45:59;10.00;7.50;7.00
69205;PMS7003;56319;48.920;2.332;2023-12-07T07:48:26;6.00;6.00;5.00
69205;PMS7003;56319;48.920;2.332;2023-12-07T07:50:51;7.75;7.75;6.50
69205;PMS7003;56319;48.920;2.332;2023-12-07T07:53:18;9.00;8.75;7.00
69205;PMS7003;56319;48.920;2.332;2023-12-07T07:55:44;7.25;6.75;5.75
69205;PMS7003;56319;48.920;2.332;2023-12-07T07:58:10;7.75;7.75;6.00
69205;PMS7003;56319;48.920;2.332;2023-12-07T08:00:35;7.25;6.50;6.00
69205;PMS7003;56319;48.920;2.332;2023-12-07T08:03:01;7.50;7.50;7.00
69205;PMS7003;56319;48.920;2.332;2023-12-07T08:05:27;8.75;7.00;6.00
69205;PMS7003;56319;48.920;2.332;2023-12-07T08:07:53;6.25;5.00;5.00
69205;PMS7003;56319;48.920;2.332;2023-12-07T08:10:19;8.00;8.00;6.75
69205;PMS7003;56319;48.920;2.332;2023-12-07T08:12:45;6.75;6.75;5.75
69205;PMS7003;56319;48.920;2.332;2023-12-07T08:15:11;8.00;7.00;6.00
69205;PMS7003;56319;48.920;2.332;2023-12-07T08:17:38;5.75;5.75;5.75
69205;PMS7003;56319;48.920;2.332;2023-12-07T08:20:06;7.00;7.00;7.00
69205;PMS7003;56319;48.920;2.332;2023-12-07T08:22:35;7.25;7.25;6.75
69205;PMS7003;56319;48.920;2.332;2023-12-07T08:25:03;7.00;5.50;5.00
69205;PMS7003;56319;48.920;2.332;2023-12-07T08:27:32;7.00;6.00;6.00
69205;PMS7003;56319;48.920;2.332;2023-12-07T08:29:58;7.00;7.00;6.25
69205;PMS7003;56319;48.920;2.332;2023-12-07T08:32:24;8.25;8.25;7.00
69205;PMS7003;56319;48.920;2.332;2023-12-07T08:34:51;8.50;8.50;6.50
69205;PMS7003;56319;48.920;2.332;2023-12-07T08:37:17;8.00;6.75;5.00
69205;PMS7003;56319;48.920;2.332;2023-12-07T08:39:43;8.50;8.00;7.00
69205;PMS7003;56319;48.920;2.332;2023-12-07T08:42:09;7.75;7.00;5.50
69205;PMS7003;56319;48.920;2.332;2023-12-07T08:44:35;7.00;6.25;5.00
69205;PMS7003;56319;48.920;2.332;2023-12-07T08:47:01;5.00;4.50;4.50
69205;PMS7003;56319;48.920;2.332;2023-12-07T08:49:29;7.50;7.50;6.00
69205;PMS7003;56319;48.920;2.332;2023-12-07T08:51:56;8.00;7.00;6.75
69205;PMS7003;56319;48.920;2.332;2023-12-07T08:54:22;6.75;6.75;6.00
69205;PMS7003;56319;48.920;2.332;2023-12-07T08:56:48;7.00;6.00;5.00
69205;PMS7003;56319;48.920;2.332;2023-12-07T08:59:14;7.00;5.00;5.00
69205;PMS7003;56319;48.920;2.332;2023-12-07T09:01:39;5.25;5.25;4.50
69205;PMS7003;56319;48.920;2.332;2023-12-07T09:04:05;6.50;6.50;5.50
69205;PMS7003;56319;48.920;2.332;2023-12-07T09:06:31;6.00;6.00;6.00
69205;PMS7003;56319;48.920;2.332;2023-12-07T09:08:57;6.50;6.00;6.00
69205;PMS7003;56319;48.920;2.332;2023-12-07T09:11:23;6.75;6.75;5.75
69205;PMS7003;56319;48.920;2.332;2023-12-07T09:13:49;6.50;6.00;5.00
69205;PMS7003;56319;48.920;2.332;2023-12-07T09:16:21;5.00;5.00;5.00
69205;PMS7003;56319;48.920;2.332;2023-12-07T09:18:47;7.25;7.25;6.00
69205;PMS7003;56319;48.920;2.332;2023-12-07T09:21:12;7.00;7.00;6.00
69205;PMS7003;56319;48.920;2.332;2023-12-07T09:23:38;7.00;5.00;5.00
69205;PMS7003;56319;48.920;2.332;2023-12-07T09:26:04;6.50;5.50;5.00
69205;PMS7003;56319;48.920;2.332;2023-12-07T09:28:31;7.00;5.25;4.00
69205;PMS7003;56319;48.920;2.332;2023-12-07T09:31:00;5.00;5.00;5.00
69205;PMS7003;56319;48.920;2.332;2023-12-07T09:33:25;5.75;5.75;4.00
69205;PMS7003;56319;48.920;2.332;2023-12-07T09:35:51;6.00;6.00;5.00
69205;PMS7003;56319;48.920;2.332;2023-12-07T09:38:17;6.25;6.25;6.25
69205;PMS7003;56319;48.920;2.332;2023-12-07T09:40:43;6.00;6.00;6.00
69205;PMS7003;56319;48.920;2.332;2023-12-07T09:43:11;5.00;5.00;5.00
69205;PMS7003;56319;48.920;2.332;2023-12-07T09:45:38;7.00;6.75;5.00
69205;PMS7003;56319;48.920;2.332;2023-12-07T09:48:04;8.00;6.00;5.00
69205;PMS7003;56319;48.920;2.332;2023-12-07T09:50:33;5.50;4.00;3.00
69205;PMS7003;56319;48.920;2.332;2023-12-07T09:52:59;5.75;5.75;5.00
69205;PMS7003;56319;48.920;2.332;2023-12-07T09:55:24;7.25;7.25;5.25
69205;PMS7003;56319;48.920;2.332;2023-12-07T09:57:50;5.50;5.00;4.00
69205;PMS7003;56319;48.920;2.332;2023-12-07T10:00:19;5.00;5.00;4.00
69205;PMS7003;56319;48.920;2.332;2023-12-07T10:02:46;7.25;7.25;5.75
69205;PMS7003;56319;48.920;2.332;2023-12-07T10:05:12;7.00;7.00;5.75
69205;PMS7003;56319;48.920;2.332;2023-12-07T10:10:07;6.00;5.75;4.00
69205;PMS7003;56319;48.920;2.332;2023-12-07T10:15:29;7.00;6.25;6.00
69205;PMS7003;56319;48.920;2.332;2023-12-07T10:17:56;7.00;7.00;5.75
69205;PMS7003;56319;48.920;2.332;2023-12-07T10:20:26;8.00;6.00;5.00
69205;PMS7003;56319;48.920;2.332;2023-12-07T10:25:42;5.25;5.00;4.50
69205;PMS7003;56319;48.920;2.332;2023-12-07T10:28:08;5.75;5.00;4.00
69205;PMS7003;56319;48.920;2.332;2023-12-07T10:30:37;6.00;6.00;5.00
69205;PMS7003;56319;48.920;2.332;2023-12-07T10:33:05;6.00;6.00;5.00
69205;PMS7003;56319;48.920;2.332;2023-12-07T10:35:33;5.00;4.75;4.00
69205;PMS7003;56319;48.920;2.332;2023-12-07T10:38:04;6.00;5.00;4.25
69205;PMS7003;56319;48.920;2.332;2023-12-07T10:40:30;6.75;6.75;5.25
69205;PMS7003;56319;48.920;2.332;2023-12-07T10:42:57;7.75;6.50;6.00
69205;PMS7003;56319;48.920;2.332;2023-12-07T10:45:24;6.25;4.00;4.00
69205;PMS7003;56319;48.920;2.332;2023-12-07T10:47:56;4.50;3.00;3.00
69205;PMS7003;56319;48.920;2.332;2023-12-07T10:50:27;5.75;5.75;5.00
69205;PMS7003;56319;48.920;2.332;2023-12-07T10:53:01;7.00;5.00;4.00
69205;PMS7003;56319;48.920;2.332;2023-12-07T10:55:38;6.75;5.25;4.50
69205;PMS7003;56319;48.920;2.332;2023-12-07T10:58:13;4.25;4.25;4.00
69205;PMS7003;56319;48.920;2.332;2023-12-07T11:00:42;1.25;1.00;0.00
69205;PMS7003;56319;48.920;2.332;2023-12-07T11:03:13;7.00;7.00;6.00
69205;PMS7003;56319;48.920;2.332;2023-12-07T11:05:42;6.00;6.00;5.75
69205;PMS7003;56319;48.920;2.332;2023-12-07T11:08:09;3.50;3.50;3.00
69205;PMS7003;56319;48.920;2.332;2023-12-07T11:16:14;5.50;5.50;4.75
69205;PMS7003;56319;48.920;2.332;2023-12-07T11:18:40;8.25;6.00;5.00
69205;PMS7003;56319;48.920;2.332;2023-12-07T11:21:06;5.75;5.75;5.00
69205;PMS7003;56319;48.920;2.332;2023-12-07T11:23:32;6.00;6.00;5.00
69205;PMS7003;56319;48.920;2.332;2023-12-07T11:26:01;6.25;6.25;5.25
69205;PMS7003;56319;48.920;2.332;2023-12-07T11:31:13;5.50;5.25;4.50
69205;PMS7003;56319;48.920;2.332;2023-12-07T11:33:41;6.00;6.00;5.25
69205;PMS7003;56319;48.920;2.332;2023-12-07T11:36:08;7.00;5.25;4.00
69205;PMS7003;56319;48.920;2.332;2023-12-07T11:38:36;6.00;6.00;5.25
69205;PMS7003;56319;48.920;2.332;2023-12-07T11:41:02;5.75;5.75;5.25
69205;PMS7003;56319;48.920;2.332;2023-12-07T11:43:37;6.00;6.00;5.00
69205;PMS7003;56319;48.920;2.332;2023-12-07T11:46:09;4.75;4.75;4.00
69205;PMS7003;56319;48.920;2.332;2023-12-07T11:48:36;7.75;5.75;5.00
69205;PMS7003;56319;48.920;2.332;2023-12-07T11:51:04;6.75;6.75;5.75
69205;PMS7003;56319;48.920;2.332;2023-12-07T11:53:37;6.00;5.00;4.25
69205;PMS7003;56319;48.920;2.332;2023-12-07T11:56:05;6.25;5.00;4.50
69205;PMS7003;56319;48.920;2.332;2023-12-07T11:58:36;5.00;5.00;3.50
69205;PMS7003;56319;48.920;2.332;2023-12-07T12:01:03;4.50;3.00;2.50
69205;PMS7003;56319;48.920;2.332;2023-12-07T12:03:30;9.00;6.75;5.75
69205;PMS7003;56319;48.920;2.332;2023-12-07T12:05:57;6.50;6.00;5.00
69205;PMS7003;56319;48.920;2.332;2023-12-07T12:08:25;6.75;5.00;5.00
69205;PMS7003;56319;48.920;2.332;2023-12-07T12:10:51;5.50;5.50;5.00
69205;PMS7003;56319;48.920;2.332;2023-12-07T12:13:25;7.50;6.00;5.00
69205;PMS7003;56319;48.920;2.332;2023-12-07T12:15:53;6.50;6.00;5.00
69205;PMS7003;56319;48.920;2.332;2023-12-07T12:18:22;4.75;4.25;4.25
69205;PMS7003;56319;48.920;2.332;2023-12-07T12:20:51;5.00;5.00;4.50
69205;PMS7003;56319;48.920;2.332;2023-12-07T12:23:22;7.00;6.00;5.00
69205;PMS7003;56319;48.920;2.332;2023-12-07T12:25:48;5.50;5.50;4.50
69205;PMS7003;56319;48.920;2.332;2023-12-07T12:28:15;5.75;5.75;4.75
69205;PMS7003;56319;48.920;2.332;2023-12-07T12:30:44;5.25;5.25;4.50
69205;PMS7003;56319;48.920;2.332;2023-12-07T12:33:10;6.00;6.00;5.00
69205;PMS7003;56319;48.920;2.332;2023-12-07T12:35:38;6.00;6.00;5.00
69205;PMS7003;56319;48.920;2.332;2023-12-07T12:38:03;6.50;5.25;4.00
69205;PMS7003;56319;48.920;2.332;2023-12-07T12:40:36;6.00;6.00;4.75
69205;PMS7003;56319;48.920;2.332;2023-12-07T12:43:01;4.00;3.75;3.00
69205;PMS7003;56319;48.920;2.332;2023-12-07T12:45:27;4.25;4.25;3.50
69205;PMS7003;56319;48.920;2.332;2023-12-07T12:47:53;5.75;5.75;5.00
69205;PMS7003;56319;48.920;2.332;2023-12-07T12:53:09;6.00;6.00;5.00
69205;PMS7003;56319;48.920;2.332;2023-12-07T12:55:36;5.00;5.00;4.25
69205;PMS7003;56319;48.920;2.332;2023-12-07T12:58:04;6.75;5.00;4.50
69205;PMS7003;56319;48.920;2.332;2023-12-07T13:00:35;4.00;4.00;4.00
69205;PMS7003;56319;48.920;2.332;2023-12-07T13:03:05;4.00;4.00;4.00
69205;PMS7003;56319;48.920;2.332;2023-12-07T13:05:33;5.00;4.00;4.00
69205;PMS7003;56319;48.920;2.332;2023-12-07T13:08:08;5.75;5.00;5.00
69205;PMS7003;56319;48.920;2.332;2023-12-07T13:10:34;7.50;5.00;4.00
69205;PMS7003;56319;48.920;2.332;2023-12-07T13:13:00;5.75;5.75;5.00
69205;PMS7003;56319;48.920;2.332;2023-12-07T13:15:28;6.50;5.00;4.00
69205;PMS7003;56319;48.920;2.332;2023-12-07T13:17:54;4.50;4.00;4.00
69205;PMS7003;56319;48.920;2.332;2023-12-07T13:20:20;6.00;4.25;4.00
69205;PMS7003;56319;48.920;2.332;2023-12-07T13:22:47;4.75;4.25;3.75
69205;PMS7003;56319;48.920;2.332;2023-12-07T13:25:13;5.25;5.25;4.25
69205;PMS7003;56319;48.920;2.332;2023-12-07T13:27:39;4.00;3.25;3.00
69205;PMS7003;56319;48.920;2.332;2023-12-07T13:30:06;4.00;4.00;3.25
69205;PMS7003;56319;48.920;2.332;2023-12-07T13:32:32;5.50;5.50;5.00
69205;PMS7003;56319;48.920;2.332;2023-12-07T13:34:59;5.75;5.75;5.50
69205;PMS7003;56319;48.920;2.332;2023-12-07T13:37:26;5.25;4.00;3.75
69205;PMS7003;56319;48.920;2.332;2023-12-07T13:39:53;4.25;4.25;3.50
69205;PMS7003;56319;48.920;2.332;2023-12-07T13:42:24;4.00;4.00;3.00
69205;PMS7003;56319;48.920;2.332;2023-12-07T13:44:54;5.75;5.75;4.00
69205;PMS7003;56319;48.920;2.332;2023-12-07T13:47:24;5.00;5.00;4.00
69205;PMS7003;56319;48.920;2.332;2023-12-07T13:50:10;6.25;5.00;4.50
69205;PMS7003;56319;48.920;2.332;2023-12-07T13:52:36;5.50;5.00;4.00
69205;PMS7003;56319;48.920;2.332;2023-12-07T13:55:04;6.50;5.00;4.00
69205;PMS7003;56319;48.920;2.332;2023-12-07T13:57:30;4.25;4.25;3.25
69205;PMS7003;56319;48.920;2.332;2023-12-07T13:59:56;5.25;5.00;4.00
69205;PMS7003;56319;48.920;2.332;2023-12-07T14:02:23;4.00;4.00;3.75
69205;PMS7003;56319;48.920;2.332;2023-12-07T14:04:49;5.75;5.75;5.00
69205;PMS7003;56319;48.920;2.332;2023-12-07T14:07:16;1.75;1.75;1.00
69205;PMS7003;56319;48.920;2.332;2023-12-07T14:09:44;4.00;4.00;4.00
69205;PMS7003;56319;48.920;2.332;2023-12-07T14:12:11;6.00;4.75;3.75
69205;PMS7003;56319;48.920;2.332;2023-12-07T14:14:40;2.00;2.00;1.00
69205;PMS7003;56319;48.920;2.332;2023-12-07T14:17:07;5.50;4.00;4.00
69205;PMS7003;56319;48.920;2.332;2023-12-07T14:19:32;5.00;4.00;3.75
69205;PMS7003;56319;48.920;2.332;2023-12-07T14:21:58;5.50;4.00;4.00
69205;PMS7003;56319;48.920;2.332;2023-12-07T14:24:25;4.00;4.00;4.00
69205;PMS7003;56319;48.920;2.332;2023-12-07T14:26:51;1.25;1.25;1.00
69205;PMS7003;56319;48.920;2.332;2023-12-07T14:29:18;4.00;4.00;4.00